createdAt,value
2022-12-20T00:02:19.476Z,57.87
2022-12-20T00:04:49.642Z,57.73
2022-12-20T00:07:16.274Z,57.90
2022-12-20T00:09:43.039Z,58.36
2022-12-20T00:12:09.694Z,58.33
2022-12-20T00:14:39.240Z,58.38
2022-12-20T00:17:06.177Z,58.23
2022-12-20T00:19:33.337Z,58.06
2022-12-20T00:22:00.209Z,58.16
2022-12-20T00:24:27.893Z,57.96
2022-12-20T00:26:54.481Z,57.39
2022-12-20T00:29:21.041Z,58.02
2022-12-20T00:31:47.675Z,57.92
2022-12-20T00:34:14.253Z,58.49
2022-12-20T00:36:41.026Z,58.24
2022-12-20T00:39:07.717Z,58.08
2022-12-20T00:41:34.256Z,57.71
2022-12-20T00:44:01.175Z,58.15
2022-12-20T00:46:28.528Z,57.00
2022-12-20T00:48:55.770Z,57.72
2022-12-20T00:51:26.856Z,57.97
2022-12-20T00:53:53.928Z,58.07
2022-12-20T00:56:21.370Z,58.18
2022-12-20T00:58:48.614Z,58.49
2022-12-20T01:01:20.824Z,58.46
2022-12-20T01:03:51.643Z,58.49
2022-12-20T01:06:18.184Z,58.70
2022-12-20T01:08:45.237Z,58.39
2022-12-20T01:11:13.727Z,58.64
2022-12-20T01:13:42.180Z,58.02
2022-12-20T01:16:10.553Z,58.90
2022-12-20T01:18:37.441Z,58.54
2022-12-20T01:21:05.034Z,58.51
2022-12-20T01:23:31.727Z,58.73
2022-12-20T01:25:59.112Z,58.70
2022-12-20T01:28:25.854Z,58.72
2022-12-20T01:30:52.642Z,58.41
2022-12-20T01:33:19.067Z,57.77
2022-12-20T01:35:59.233Z,58.05
2022-12-20T01:38:25.952Z,58.00
2022-12-20T01:40:53.023Z,57.89
2022-12-20T01:43:19.941Z,57.76
2022-12-20T01:45:47.071Z,57.60
2022-12-20T01:48:18.914Z,57.67
2022-12-20T01:50:48.082Z,57.79
2022-12-20T01:53:18.701Z,57.68
2022-12-20T01:55:47.750Z,57.64
2022-12-20T01:58:16.426Z,57.64
2022-12-20T02:00:43.276Z,57.31
2022-12-20T02:03:12.720Z,57.54
2022-12-20T02:05:45.249Z,57.29
2022-12-20T02:08:13.809Z,57.65
2022-12-20T02:10:55.832Z,57.82
2022-12-20T02:13:46.859Z,57.82
2022-12-20T02:16:17.995Z,57.74
2022-12-20T02:18:55.577Z,57.66
2022-12-20T02:21:27.362Z,57.90
2022-12-20T02:24:03.572Z,58.26
2022-12-20T02:26:50.964Z,57.87
2022-12-20T02:29:28.337Z,57.85
2022-12-20T02:32:10.143Z,57.08
2022-12-20T02:34:37.911Z,57.66
2022-12-20T02:37:04.904Z,57.91
2022-12-20T02:39:32.435Z,58.38
2022-12-20T02:42:06.162Z,57.57
2022-12-20T02:44:53.149Z,57.53
2022-12-20T02:47:24.916Z,58.23
2022-12-20T02:49:52.411Z,57.70
2022-12-20T02:52:20.995Z,57.85
2022-12-20T02:54:48.079Z,57.67
2022-12-20T02:57:20.285Z,57.75
2022-12-20T03:00:08.418Z,57.88
2022-12-20T03:02:55.801Z,58.24
2022-12-20T03:05:25.240Z,58.91
2022-12-20T03:07:53.371Z,58.51
2022-12-20T03:10:22.858Z,57.95
2022-12-20T03:12:50.050Z,57.79
2022-12-20T03:15:17.170Z,58.29
2022-12-20T03:17:43.823Z,58.18
2022-12-20T03:20:11.397Z,58.59
2022-12-20T03:22:39.040Z,58.26
2022-12-20T03:25:05.966Z,58.34
2022-12-20T03:27:33.337Z,57.79
2022-12-20T03:30:05.470Z,58.35
2022-12-20T03:32:47.825Z,58.15
2022-12-20T03:35:33.438Z,58.17
2022-12-20T03:38:00.185Z,59.58
2022-12-20T03:40:33.212Z,60.81
2022-12-20T03:43:04.137Z,61.05
2022-12-20T03:45:30.851Z,62.13
2022-12-20T03:48:16.732Z,62.60
2022-12-20T03:51:23.956Z,62.56
2022-12-20T03:57:38.985Z,61.79
2022-12-20T04:00:30.070Z,62.11
2022-12-20T04:07:37.276Z,61.81
2022-12-20T04:10:41.407Z,62.46
2022-12-20T04:13:23.378Z,62.40
2022-12-20T04:16:00.277Z,61.97
2022-12-20T04:22:19.180Z,61.56
2022-12-20T04:25:07.709Z,61.77
2022-12-20T04:27:38.841Z,61.81
2022-12-20T04:30:26.364Z,62.10
2022-12-20T04:33:06.053Z,61.99
2022-12-20T04:35:55.380Z,61.35
2022-12-20T04:38:23.966Z,61.61
2022-12-20T04:41:05.731Z,61.91
2022-12-20T04:47:50.194Z,62.26
2022-12-20T04:50:29.176Z,62.19
2022-12-20T04:59:57.484Z,61.63
2022-12-20T05:02:24.643Z,61.78
2022-12-20T05:05:02.395Z,61.29
2022-12-20T05:07:43.246Z,61.17
2022-12-20T05:14:07.566Z,60.49
2022-12-20T05:16:40.911Z,60.56
2022-12-20T05:19:37.188Z,60.95
2022-12-20T05:26:19.538Z,60.96
2022-12-20T05:32:48.274Z,61.02
2022-12-20T05:35:34.019Z,60.71
2022-12-20T05:38:09.200Z,60.43
2022-12-20T05:41:08.081Z,61.12
2022-12-20T05:43:35.737Z,60.81
2022-12-20T05:46:40.096Z,60.47
2022-12-20T05:57:13.087Z,61.56
2022-12-20T06:00:22.683Z,61.17
2022-12-20T06:03:08.711Z,61.01
2022-12-20T06:05:36.782Z,60.93
2022-12-20T06:08:30.791Z,61.17
2022-12-20T06:11:13.117Z,61.11
2022-12-20T06:14:01.238Z,60.92
2022-12-20T06:16:53.199Z,61.44
2022-12-20T06:19:29.839Z,61.09
2022-12-20T06:22:11.186Z,61.44
2022-12-20T06:25:03.620Z,60.63
2022-12-20T06:27:39.304Z,60.91
2022-12-20T06:30:14.136Z,60.49
2022-12-20T06:33:19.509Z,60.76
2022-12-20T06:36:10.890Z,60.30
2022-12-20T06:39:29.119Z,60.36
2022-12-20T06:45:41.955Z,60.37
2022-12-20T06:51:56.175Z,60.54
2022-12-20T06:55:10.330Z,60.35
2022-12-20T06:57:51.917Z,60.52
2022-12-20T07:00:29.075Z,59.91
2022-12-20T07:03:16.969Z,59.86
2022-12-20T07:06:45.667Z,59.58
2022-12-20T07:12:25.743Z,59.67
2022-12-20T07:15:32.716Z,59.33
2022-12-20T07:18:27.536Z,59.69
2022-12-20T07:20:58.557Z,59.49
2022-12-20T07:24:23.778Z,59.09
2022-12-20T07:27:48.947Z,58.98
2022-12-20T07:33:40.102Z,58.31
2022-12-20T07:39:12.852Z,58.89
2022-12-20T07:41:59.839Z,58.62
2022-12-20T07:44:44.502Z,58.31
2022-12-20T07:47:58.379Z,58.59
2022-12-20T07:50:28.606Z,59.42
2022-12-20T07:53:09.022Z,59.09
2022-12-20T07:55:37.156Z,59.60
2022-12-20T07:58:24.583Z,59.75
2022-12-20T08:00:57.853Z,59.56
2022-12-20T08:03:31.907Z,59.31
2022-12-20T08:06:37.460Z,59.75
2022-12-20T08:09:26.396Z,59.66
2022-12-20T08:23:15.786Z,59.99
2022-12-20T08:26:23.611Z,59.86
2022-12-20T08:29:06.552Z,60.14
2022-12-20T08:31:49.488Z,59.78
2022-12-20T08:34:23.117Z,59.74
2022-12-20T08:37:15.337Z,60.12
2022-12-20T08:40:26.491Z,59.45
2022-12-20T08:46:41.194Z,59.35
2022-12-20T08:49:07.704Z,58.94
2022-12-20T08:51:37.690Z,58.43
2022-12-20T08:57:24.846Z,57.90
2022-12-20T08:59:51.468Z,58.18
2022-12-20T09:02:38.902Z,57.48
2022-12-20T09:09:00.769Z,58.20
2022-12-20T09:11:51.359Z,57.45
2022-12-20T09:17:56.654Z,57.04
2022-12-20T09:20:44.409Z,57.12
2022-12-20T09:23:14.119Z,56.41
2022-12-20T09:26:17.471Z,56.73
2022-12-20T09:29:25.001Z,57.00
2022-12-20T09:35:56.448Z,56.05
2022-12-20T09:38:37.845Z,56.27
2022-12-20T09:41:11.811Z,56.13
2022-12-20T09:43:53.719Z,55.58
2022-12-20T09:46:55.116Z,54.92
2022-12-20T09:49:31.033Z,55.21
2022-12-20T09:52:25.544Z,53.92
2022-12-20T09:55:28.823Z,53.51
2022-12-20T09:58:10.777Z,53.36
2022-12-20T10:01:24.906Z,53.30
2022-12-20T10:04:30.330Z,53.56
2022-12-20T10:11:16.615Z,53.80
2022-12-20T10:14:08.183Z,54.18
2022-12-20T10:20:38.959Z,53.82
2022-12-20T10:23:33.569Z,54.34
2022-12-20T10:49:41.006Z,53.50
2022-12-20T10:52:07.693Z,53.43
2022-12-20T10:54:34.327Z,53.72
2022-12-20T10:57:02.313Z,53.60
2022-12-20T10:59:35.337Z,53.53
2022-12-20T11:02:03.223Z,53.69
2022-12-20T11:04:35.468Z,53.88
2022-12-20T11:07:04.078Z,54.39
2022-12-20T11:09:32.169Z,53.95
2022-12-20T11:12:00.325Z,54.22
2022-12-20T11:14:30.342Z,53.90
2022-12-20T11:17:15.532Z,54.41
2022-12-20T11:20:00.985Z,54.35
2022-12-20T11:22:51.203Z,54.74
2022-12-20T11:25:25.499Z,54.91
2022-12-20T11:27:58.086Z,54.98
2022-12-20T11:30:27.490Z,54.64
2022-12-20T11:33:04.217Z,55.13
2022-12-20T11:35:40.519Z,54.59
2022-12-20T11:38:09.808Z,54.14
2022-12-20T11:40:40.055Z,54.75
2022-12-20T11:43:25.517Z,54.90
2022-12-20T11:46:01.896Z,54.40
2022-12-20T11:48:28.355Z,54.60
2022-12-20T11:51:15.029Z,54.59
2022-12-20T11:53:45.641Z,54.99
2022-12-20T11:56:15.967Z,55.24
2022-12-20T11:58:55.772Z,55.12
2022-12-20T12:01:26.409Z,55.33
2022-12-20T12:04:01.762Z,55.42
2022-12-20T12:06:31.104Z,55.33
2022-12-20T12:09:13.191Z,55.42
2022-12-20T12:14:52.764Z,55.58
2022-12-20T12:17:55.038Z,55.26
2022-12-20T12:20:25.624Z,55.77
2022-12-20T12:22:55.007Z,56.12
2022-12-20T12:25:21.683Z,55.79
2022-12-20T12:27:48.273Z,55.20
2022-12-20T12:30:18.238Z,55.60
2022-12-20T12:32:49.158Z,55.89
2022-12-20T12:35:15.836Z,54.87
2022-12-20T12:37:51.750Z,54.62
2022-12-20T12:40:25.210Z,54.15
2022-12-20T12:43:07.089Z,53.79
2022-12-20T12:45:36.938Z,53.70
2022-12-20T12:48:03.763Z,52.45
2022-12-20T12:50:33.834Z,53.13
2022-12-20T12:53:20.703Z,51.81
2022-12-20T12:55:52.130Z,52.43
2022-12-20T12:58:25.107Z,52.89
2022-12-20T13:00:54.714Z,52.40
2022-12-20T13:03:39.659Z,52.47
2022-12-20T13:06:25.349Z,52.43
2022-12-20T13:09:04.151Z,52.45
2022-12-20T13:11:30.722Z,52.47
2022-12-20T13:14:13.072Z,52.59
2022-12-20T13:17:10.902Z,52.24
2022-12-20T13:19:28.019Z,52.27
2022-12-20T13:21:58.385Z,52.28
2022-12-20T13:24:46.796Z,52.41
2022-12-20T13:27:23.420Z,52.36
2022-12-20T13:30:22.409Z,52.02
2022-12-20T13:32:49.028Z,52.80
2022-12-20T13:35:24.894Z,52.74
2022-12-20T13:37:57.398Z,52.77
2022-12-20T13:40:36.505Z,52.85
2022-12-20T13:43:06.774Z,53.66
2022-12-20T13:45:34.078Z,53.77
2022-12-20T13:48:10.829Z,53.82
2022-12-20T13:50:47.394Z,53.71
2022-12-20T13:53:17.920Z,53.91
2022-12-20T13:55:45.241Z,54.23
2022-12-20T13:58:29.961Z,54.03
2022-12-20T14:01:07.477Z,54.66
2022-12-20T14:03:40.398Z,54.77
2022-12-20T14:06:10.324Z,54.40
2022-12-20T14:08:47.677Z,54.09
2022-12-20T14:11:19.350Z,54.24
2022-12-20T14:14:15.564Z,54.36
2022-12-20T14:16:42.251Z,54.48
2022-12-20T14:19:13.177Z,54.03
2022-12-20T14:21:41.552Z,54.43
2022-12-20T14:24:15.844Z,54.23
2022-12-20T14:26:44.808Z,54.05
2022-12-20T14:29:12.552Z,54.21
2022-12-20T14:31:40.851Z,54.11
2022-12-20T14:34:13.839Z,53.42
2022-12-20T14:36:45.018Z,53.47
2022-12-20T14:39:31.999Z,53.76
2022-12-20T14:42:02.698Z,54.15
2022-12-20T14:44:30.986Z,54.61
2022-12-20T14:47:02.552Z,55.40
2022-12-20T14:49:34.111Z,55.66
2022-12-20T14:52:19.473Z,55.75
2022-12-20T14:55:11.386Z,56.26
2022-12-20T14:57:53.470Z,55.88
2022-12-20T15:00:23.250Z,55.96
2022-12-20T15:03:07.583Z,55.52
2022-12-20T15:05:38.443Z,55.63
2022-12-20T15:08:14.120Z,55.23
2022-12-20T15:10:42.884Z,55.41
2022-12-20T15:13:12.099Z,54.78
2022-12-20T15:15:38.927Z,54.64
2022-12-20T15:18:11.076Z,55.29
2022-12-20T15:20:37.662Z,55.16
2022-12-20T15:23:04.410Z,55.17
2022-12-20T15:25:39.504Z,55.22
2022-12-20T15:28:16.963Z,55.60
2022-12-20T15:30:44.215Z,55.70
2022-12-20T15:33:15.235Z,55.18
2022-12-20T15:35:41.743Z,55.79
2022-12-20T15:38:16.528Z,55.59
2022-12-20T15:40:44.069Z,55.01
2022-12-20T15:43:14.903Z,55.13
2022-12-20T15:45:43.314Z,55.52
2022-12-20T15:48:17.593Z,55.86
2022-12-20T15:50:48.576Z,55.41
2022-12-20T15:53:16.349Z,54.97
2022-12-20T15:55:43.464Z,54.66
2022-12-20T15:58:10.541Z,54.85
2022-12-20T16:00:40.667Z,54.95
2022-12-20T16:03:28.711Z,55.10
2022-12-20T16:05:56.430Z,55.02
2022-12-20T16:08:23.019Z,54.98
2022-12-20T16:10:51.603Z,55.05
2022-12-20T16:13:24.008Z,54.63
2022-12-20T16:15:51.628Z,54.69
2022-12-20T16:18:18.289Z,54.43
2022-12-20T16:20:44.978Z,54.24
2022-12-20T16:23:19.135Z,54.33
2022-12-20T16:25:45.883Z,54.04
2022-12-20T16:28:12.833Z,54.19
2022-12-20T16:30:39.438Z,53.95
2022-12-20T16:33:06.719Z,53.97
2022-12-20T16:35:37.294Z,53.77
2022-12-20T16:38:04.285Z,53.83
2022-12-20T16:40:32.291Z,53.83
2022-12-20T16:42:59.618Z,53.64
2022-12-20T16:45:28.042Z,53.73
2022-12-20T16:47:54.668Z,53.74
2022-12-20T16:50:22.407Z,53.93
2022-12-20T16:52:50.313Z,53.75
2022-12-20T16:55:24.160Z,54.11
2022-12-20T16:57:51.503Z,53.90
2022-12-20T17:00:21.242Z,54.25
2022-12-20T17:02:48.315Z,54.00
2022-12-20T17:05:20.920Z,54.50
2022-12-20T17:10:32.716Z,54.15
2022-12-20T17:12:59.596Z,54.31
2022-12-20T17:15:27.824Z,54.34
2022-12-20T17:17:56.414Z,54.65
2022-12-20T17:20:36.992Z,54.50
2022-12-20T17:25:53.863Z,54.60
2022-12-20T17:28:29.339Z,54.03
2022-12-20T17:30:57.909Z,54.29
2022-12-20T17:33:28.748Z,54.02
2022-12-20T17:35:59.046Z,54.32
2022-12-20T17:38:28.723Z,54.31
2022-12-20T17:40:56.163Z,54.33
2022-12-20T17:43:23.106Z,54.69
2022-12-20T17:45:49.857Z,54.57
2022-12-20T17:48:16.382Z,54.91
2022-12-20T17:50:43.218Z,54.45
2022-12-20T17:53:17.024Z,54.66
2022-12-20T17:55:43.862Z,54.50
2022-12-20T17:58:15.274Z,54.09
2022-12-20T18:00:44.545Z,54.43
2022-12-20T18:03:52.963Z,54.26
2022-12-20T18:06:08.455Z,54.64
2022-12-20T18:08:37.123Z,53.89
2022-12-20T18:11:24.118Z,54.27
2022-12-20T18:13:57.703Z,54.35
2022-12-20T18:16:29.089Z,54.34
2022-12-20T18:18:56.040Z,54.71
2022-12-20T18:21:24.249Z,54.69
2022-12-20T18:23:57.346Z,54.71
2022-12-20T18:26:25.733Z,55.37
2022-12-20T18:28:57.318Z,54.93
2022-12-20T18:31:30.594Z,54.93
2022-12-20T18:34:01.213Z,54.82
2022-12-20T18:36:29.119Z,54.63
2022-12-20T18:38:56.828Z,54.68
2022-12-20T18:41:31.188Z,54.74
2022-12-20T18:44:02.730Z,55.39
2022-12-20T18:46:29.357Z,55.46
2022-12-20T18:48:58.049Z,55.02
2022-12-20T18:51:28.485Z,55.45
2022-12-20T18:53:56.029Z,54.98
2022-12-20T18:56:28.701Z,55.13
2022-12-20T18:59:04.479Z,55.18
2022-12-20T19:01:44.968Z,55.58
2022-12-20T19:04:12.040Z,55.72
2022-12-20T19:06:39.099Z,55.22
2022-12-20T19:09:10.271Z,55.19
2022-12-20T19:11:37.395Z,55.29
2022-12-20T19:14:03.960Z,55.19
2022-12-20T19:16:33.064Z,54.64
2022-12-20T19:19:03.939Z,54.83
2022-12-20T19:21:34.948Z,55.02
2022-12-20T19:24:05.247Z,54.81
2022-12-20T19:26:31.966Z,54.48
2022-12-20T19:29:01.869Z,54.37
2022-12-20T19:31:30.373Z,54.44
2022-12-20T19:33:59.186Z,54.62
2022-12-20T19:36:30.501Z,54.67
2022-12-20T19:38:58.389Z,54.62
2022-12-20T19:41:26.320Z,54.59
2022-12-20T19:43:53.039Z,54.96
2022-12-20T19:46:28.051Z,54.56
2022-12-20T19:48:59.240Z,54.46
2022-12-20T19:51:29.646Z,54.83
2022-12-20T19:53:59.773Z,55.30
2022-12-20T19:56:28.399Z,55.96
2022-12-20T19:58:55.958Z,56.81
2022-12-20T20:01:25.675Z,58.08
2022-12-20T20:03:56.968Z,58.47
2022-12-20T20:06:26.925Z,59.28
2022-12-20T20:09:04.682Z,60.35
2022-12-20T20:11:31.589Z,61.63
2022-12-20T20:14:00.650Z,61.70
2022-12-20T20:16:27.514Z,62.61
2022-12-20T20:18:54.308Z,63.29
2022-12-20T20:21:23.425Z,64.56
2022-12-20T20:23:54.440Z,64.95
2022-12-20T20:26:23.103Z,66.19
2022-12-20T20:28:50.285Z,66.60
2022-12-20T20:31:17.876Z,67.34
2022-12-20T20:33:52.784Z,68.32
2022-12-20T20:36:20.600Z,67.88
2022-12-20T20:38:47.669Z,67.64
2022-12-20T20:44:21.721Z,68.03
2022-12-20T20:46:49.429Z,68.14
2022-12-20T20:49:17.177Z,68.18
2022-12-20T20:51:43.785Z,66.72
2022-12-20T20:54:10.623Z,68.11
2022-12-20T20:56:39.469Z,67.82
2022-12-20T20:59:10.593Z,67.68
2022-12-20T21:01:42.007Z,67.56
2022-12-20T21:04:08.723Z,67.20
2022-12-20T21:06:41.039Z,66.97
2022-12-20T21:09:08.714Z,67.42
2022-12-20T21:11:36.928Z,66.96
2022-12-20T21:14:03.744Z,67.27
2022-12-20T21:16:30.397Z,67.63
2022-12-20T21:18:58.784Z,68.18
2022-12-20T21:21:26.378Z,68.19
2022-12-20T21:23:53.343Z,68.60
2022-12-20T21:26:22.117Z,69.67
2022-12-20T21:28:48.809Z,69.89
2022-12-20T21:31:16.871Z,69.91
2022-12-20T21:33:45.882Z,68.87
2022-12-20T21:36:16.806Z,69.82
2022-12-20T21:38:51.415Z,70.60
2022-12-20T21:41:19.124Z,71.21
2022-12-20T21:43:49.377Z,72.12
2022-12-20T21:46:16.155Z,71.74
2022-12-20T21:48:54.222Z,71.48
2022-12-20T21:51:23.287Z,71.68
2022-12-20T21:53:53.912Z,71.58
2022-12-20T21:56:29.512Z,71.48
2022-12-20T21:58:56.436Z,71.82
2022-12-20T22:01:24.490Z,71.65
2022-12-20T22:03:57.694Z,72.56
2022-12-20T22:06:24.493Z,72.57
2022-12-20T22:08:51.924Z,72.63
2022-12-20T22:11:19.405Z,72.59
2022-12-20T22:13:46.838Z,72.55
2022-12-20T22:16:15.347Z,72.48
2022-12-20T22:18:42.889Z,72.23
2022-12-20T22:21:11.853Z,72.14
2022-12-20T22:23:38.950Z,71.75
2022-12-20T22:26:06.868Z,70.95
2022-12-20T22:28:33.475Z,70.26
2022-12-20T22:31:00.113Z,70.81
2022-12-20T22:33:26.761Z,70.45
2022-12-20T22:35:53.511Z,70.46
2022-12-20T22:38:20.083Z,70.20
2022-12-20T22:40:48.290Z,69.77
2022-12-20T22:43:14.808Z,69.38
2022-12-20T22:45:41.422Z,69.43
2022-12-20T22:48:07.948Z,69.98
2022-12-20T22:50:34.419Z,69.32
2022-12-20T22:53:01.072Z,69.56
2022-12-20T22:55:27.609Z,69.12
2022-12-20T22:57:54.763Z,69.38
2022-12-20T23:00:21.486Z,69.29
2022-12-20T23:02:53.364Z,69.31
2022-12-20T23:05:31.969Z,69.14
2022-12-20T23:07:58.547Z,69.49
2022-12-20T23:10:43.938Z,69.27
2022-12-20T23:13:30.490Z,69.51
2022-12-20T23:15:57.117Z,69.67
2022-12-20T23:18:23.748Z,69.78
2022-12-20T23:21:10.072Z,69.82
2022-12-20T23:23:55.590Z,69.91
2022-12-20T23:26:23.468Z,69.58
2022-12-20T23:28:50.251Z,69.59
2022-12-20T23:31:17.368Z,69.75
2022-12-20T23:33:44.180Z,70.46
2022-12-20T23:36:11.129Z,70.29
2022-12-20T23:38:38.350Z,69.79
2022-12-20T23:41:15.824Z,69.62
2022-12-20T23:43:42.708Z,69.50
2022-12-20T23:46:10.649Z,69.69
2022-12-20T23:48:37.347Z,69.78
2022-12-20T23:51:12.827Z,69.35
2022-12-20T23:53:39.612Z,70.08
2022-12-20T23:56:06.203Z,69.79
2022-12-20T23:58:32.774Z,69.70
